createdAt,value
2019-03-31T00:01:30.762Z,10.30
2019-03-31T00:04:01.021Z,10.93
2019-03-31T00:06:31.118Z,12.00
2019-03-31T00:09:01.361Z,11.83
2019-03-31T00:11:31.627Z,12.23
2019-03-31T00:14:01.793Z,11.87
2019-03-31T00:16:32.239Z,12.23
2019-03-31T00:19:02.561Z,12.10
2019-03-31T00:21:32.845Z,12.00
2019-03-31T00:24:03.273Z,13.20
2019-03-31T00:26:33.689Z,12.70
2019-03-31T00:29:04.167Z,12.63
2019-03-31T00:31:34.348Z,12.27
2019-03-31T00:34:04.508Z,11.63
2019-03-31T00:36:34.865Z,12.60
2019-03-31T00:39:07.725Z,12.20
2019-03-31T00:41:38.045Z,12.57
2019-03-31T00:44:08.190Z,13.53
2019-03-31T00:46:38.287Z,13.70
2019-03-31T00:49:08.602Z,13.63
2019-03-31T00:51:39.010Z,13.93
2019-03-31T00:54:09.178Z,13.03
2019-03-31T00:56:39.405Z,12.90
2019-03-31T00:59:09.693Z,12.50
2019-03-31T01:01:58.556Z,12.93
2019-03-31T01:04:30.129Z,11.73
2019-03-31T01:07:00.511Z,13.17
2019-03-31T01:09:35.368Z,13.07
2019-03-31T01:12:05.969Z,12.17
2019-03-31T01:14:36.647Z,12.83
2019-03-31T01:17:10.120Z,13.63
2019-03-31T01:19:40.243Z,13.43
2019-03-31T01:22:10.561Z,14.37
2019-03-31T01:24:40.917Z,13.20
2019-03-31T01:27:12.775Z,13.17
2019-03-31T01:29:42.934Z,13.60
2019-03-31T01:32:13.319Z,12.40
2019-03-31T01:34:43.795Z,12.37
2019-03-31T01:37:14.377Z,12.60
2019-03-31T01:39:44.556Z,13.73
2019-03-31T01:42:14.669Z,13.17
2019-03-31T01:44:44.768Z,13.30
2019-03-31T01:47:14.891Z,13.20
2019-03-31T01:49:45.211Z,13.67
2019-03-31T01:52:15.405Z,13.67
2019-03-31T01:54:45.697Z,13.27
2019-03-31T01:57:15.810Z,14.60
2019-03-31T01:59:46.128Z,14.97
2019-03-31T02:02:24.715Z,13.73
2019-03-31T02:04:54.908Z,14.00
2019-03-31T02:07:25.015Z,14.07
2019-03-31T02:09:55.114Z,13.70
2019-03-31T02:12:25.203Z,14.20
2019-03-31T02:14:55.587Z,13.80
2019-03-31T02:17:25.688Z,13.87
2019-03-31T02:19:55.800Z,13.60
2019-03-31T02:22:26.024Z,13.97
2019-03-31T02:24:56.144Z,13.00
2019-03-31T02:27:26.323Z,13.63
2019-03-31T02:29:56.408Z,13.33
2019-03-31T02:32:26.614Z,13.40
2019-03-31T02:34:56.768Z,12.87
2019-03-31T02:37:26.908Z,13.13
2019-03-31T02:39:57.171Z,13.70
2019-03-31T02:42:27.286Z,13.20
2019-03-31T02:44:57.371Z,13.33
2019-03-31T02:47:27.595Z,12.07
2019-03-31T02:49:57.684Z,12.87
2019-03-31T02:52:27.957Z,12.37
2019-03-31T02:54:58.654Z,12.87
2019-03-31T02:57:29.344Z,13.20
2019-03-31T03:00:00.478Z,13.40
2019-03-31T03:02:41.458Z,13.60
2019-03-31T03:05:18.478Z,13.93
2019-03-31T03:07:39.552Z,14.07
2019-03-31T03:10:09.767Z,13.87
2019-03-31T03:12:42.351Z,14.10
2019-03-31T03:15:14.218Z,14.17
2019-03-31T03:17:44.558Z,12.83
2019-03-31T03:20:14.699Z,13.23
2019-03-31T03:22:44.765Z,13.30
2019-03-31T03:25:15.240Z,14.03
2019-03-31T03:27:45.357Z,14.23
2019-03-31T03:30:15.656Z,13.77
2019-03-31T03:33:12.231Z,14.40
2019-03-31T03:35:17.581Z,14.17
2019-03-31T03:37:47.778Z,14.00
2019-03-31T03:40:18.041Z,14.37
2019-03-31T03:42:48.199Z,14.10
2019-03-31T03:45:18.329Z,14.20
2019-03-31T03:47:48.425Z,14.60
2019-03-31T03:50:18.537Z,14.10
2019-03-31T03:52:48.706Z,14.73
2019-03-31T03:55:18.954Z,13.87
2019-03-31T03:57:49.251Z,14.43
2019-03-31T04:00:19.555Z,14.30
2019-03-31T04:02:49.897Z,14.23
2019-03-31T04:05:20.114Z,14.27
2019-03-31T04:07:50.342Z,13.23
2019-03-31T04:11:06.219Z,14.17
2019-03-31T04:13:36.337Z,13.50
2019-03-31T04:16:06.434Z,15.67
2019-03-31T04:18:36.617Z,16.10
2019-03-31T04:21:06.855Z,14.30
2019-03-31T04:23:37.133Z,14.47
2019-03-31T04:26:07.382Z,14.43
2019-03-31T04:28:37.717Z,13.33
2019-03-31T04:31:07.970Z,14.00
2019-03-31T04:33:50.323Z,13.57
2019-03-31T04:36:10.094Z,13.93
2019-03-31T04:38:40.435Z,12.73
2019-03-31T04:41:10.736Z,11.87
2019-03-31T04:43:40.985Z,12.27
2019-03-31T04:46:11.281Z,12.00
2019-03-31T04:48:41.606Z,13.03
2019-03-31T04:51:11.801Z,12.07
2019-03-31T04:53:42.195Z,13.00
2019-03-31T04:56:12.408Z,13.10
2019-03-31T04:58:42.912Z,13.80
2019-03-31T05:01:13.216Z,13.23
2019-03-31T05:03:43.523Z,13.23
2019-03-31T05:06:13.784Z,14.17
2019-03-31T05:08:44.211Z,14.20
2019-03-31T05:11:14.520Z,13.80
2019-03-31T05:13:44.792Z,13.47
2019-03-31T05:16:14.988Z,14.00
2019-03-31T05:18:45.124Z,14.10
2019-03-31T05:21:15.440Z,14.07
2019-03-31T05:23:45.780Z,14.00
2019-03-31T05:26:16.098Z,14.07
2019-03-31T05:28:46.328Z,13.20
2019-03-31T05:31:16.661Z,13.23
2019-03-31T05:33:46.943Z,13.87
2019-03-31T05:36:17.256Z,13.27
2019-03-31T05:38:47.424Z,12.97
2019-03-31T05:41:17.506Z,12.53
2019-03-31T05:43:47.728Z,12.83
2019-03-31T05:46:17.994Z,12.47
2019-03-31T05:48:48.106Z,13.13
2019-03-31T05:51:18.334Z,12.57
2019-03-31T05:53:48.466Z,12.90
2019-03-31T05:56:18.671Z,12.13
2019-03-31T05:58:48.998Z,12.73
2019-03-31T06:01:19.324Z,12.93
2019-03-31T06:03:49.448Z,12.47
2019-03-31T06:06:19.724Z,12.60
2019-03-31T06:08:49.844Z,12.57
2019-03-31T06:11:20.002Z,12.47
2019-03-31T06:13:50.258Z,12.67
2019-03-31T06:16:20.553Z,12.53
2019-03-31T06:18:50.740Z,12.37
2019-03-31T06:21:21.028Z,12.77
2019-03-31T06:23:51.321Z,11.97
2019-03-31T06:26:21.701Z,11.10
2019-03-31T06:28:51.927Z,12.53
2019-03-31T06:31:22.140Z,12.60
2019-03-31T06:33:52.309Z,12.40
2019-03-31T06:36:22.628Z,12.13
2019-03-31T06:38:52.925Z,13.00
2019-03-31T06:41:23.274Z,13.03
2019-03-31T06:43:53.495Z,12.67
2019-03-31T06:46:23.888Z,12.87
2019-03-31T06:48:54.149Z,12.73
2019-03-31T06:51:24.469Z,13.03
2019-03-31T06:53:54.784Z,12.03
2019-03-31T06:56:25.178Z,12.53
2019-03-31T06:58:55.343Z,12.40
2019-03-31T07:01:25.413Z,12.30
2019-03-31T07:03:55.532Z,11.20
2019-03-31T07:06:25.705Z,11.67
2019-03-31T07:08:55.858Z,11.27
2019-03-31T07:11:26.073Z,11.50
2019-03-31T07:13:56.461Z,10.53
2019-03-31T07:16:26.697Z,10.23
2019-03-31T07:18:56.905Z,10.53
2019-03-31T07:21:27.243Z,9.80
2019-03-31T07:23:57.567Z,9.40
2019-03-31T07:26:27.889Z,9.20
2019-03-31T07:28:57.961Z,9.37
2019-03-31T07:31:28.491Z,9.00
2019-03-31T07:33:58.662Z,9.67
2019-03-31T07:36:28.981Z,9.57
2019-03-31T07:38:59.164Z,8.53
2019-03-31T07:41:29.671Z,8.60
2019-03-31T07:44:00.129Z,9.10
2019-03-31T07:46:30.397Z,8.33
2019-03-31T07:49:00.799Z,9.10
2019-03-31T07:51:31.110Z,8.57
2019-03-31T07:54:01.371Z,9.17
2019-03-31T07:56:31.564Z,8.97
2019-03-31T07:59:01.906Z,8.60
2019-03-31T08:01:32.228Z,8.00
2019-03-31T08:04:02.360Z,8.73
2019-03-31T08:06:32.581Z,8.33
2019-03-31T08:09:02.785Z,8.57
2019-03-31T08:11:33.039Z,8.90
2019-03-31T08:14:03.143Z,8.37
2019-03-31T08:16:33.501Z,7.70
2019-03-31T08:19:03.610Z,8.83
2019-03-31T08:21:33.899Z,8.43
2019-03-31T08:24:06.692Z,8.60
2019-03-31T08:26:35.943Z,8.47
2019-03-31T08:29:06.133Z,8.97
2019-03-31T08:31:36.471Z,8.77
2019-03-31T08:34:06.682Z,9.23
2019-03-31T08:36:37.015Z,9.17
2019-03-31T08:39:09.474Z,9.57
2019-03-31T08:41:39.778Z,9.50
2019-03-31T08:44:09.880Z,9.50
2019-03-31T08:46:40.056Z,9.80
2019-03-31T08:49:10.435Z,9.00
2019-03-31T08:51:40.688Z,8.93
2019-03-31T08:54:11.018Z,9.23
2019-03-31T08:56:41.300Z,9.07
2019-03-31T08:59:11.468Z,9.50
2019-03-31T09:01:42.295Z,9.63
2019-03-31T09:04:12.432Z,9.50
2019-03-31T09:06:42.636Z,9.70
2019-03-31T09:09:12.736Z,10.80
2019-03-31T09:11:43.092Z,11.30
2019-03-31T09:14:13.255Z,11.23
2019-03-31T09:16:43.496Z,10.73
2019-03-31T09:19:13.720Z,11.50
2019-03-31T09:21:43.832Z,11.33
2019-03-31T09:24:14.031Z,11.27
2019-03-31T09:26:44.342Z,11.20
2019-03-31T09:29:14.648Z,12.43
2019-03-31T09:31:45.044Z,12.57
2019-03-31T09:34:15.472Z,12.83
2019-03-31T09:36:45.604Z,14.57
2019-03-31T09:39:15.840Z,13.90
2019-03-31T09:41:46.068Z,16.00
2019-03-31T09:44:16.180Z,15.43
2019-03-31T09:46:46.324Z,15.23
2019-03-31T09:49:16.538Z,15.80
2019-03-31T09:51:46.756Z,15.70
2019-03-31T09:54:16.865Z,16.13
2019-03-31T09:56:47.205Z,14.87
2019-03-31T09:59:17.413Z,15.67
2019-03-31T10:01:47.728Z,15.33
2019-03-31T10:04:17.937Z,14.10
2019-03-31T10:06:48.248Z,14.83
2019-03-31T10:09:18.497Z,14.57
2019-03-31T10:11:48.819Z,15.10
2019-03-31T10:14:18.985Z,14.60
2019-03-31T10:16:52.759Z,14.20
2019-03-31T10:19:23.319Z,14.13
2019-03-31T10:21:53.735Z,13.70
2019-03-31T10:24:24.161Z,14.13
2019-03-31T10:26:54.389Z,14.60
2019-03-31T10:29:24.919Z,13.70
2019-03-31T10:31:55.038Z,13.67
2019-03-31T10:34:25.394Z,13.77
2019-03-31T10:36:55.846Z,13.77
2019-03-31T10:39:26.085Z,14.10
2019-03-31T10:41:56.338Z,13.60
2019-03-31T10:44:26.693Z,13.20
2019-03-31T10:46:58.578Z,14.03
2019-03-31T10:49:30.256Z,13.70
2019-03-31T10:52:00.690Z,13.40
2019-03-31T10:54:31.037Z,11.60
2019-03-31T10:57:01.315Z,11.47
2019-03-31T10:59:31.605Z,9.40
2019-03-31T11:02:01.899Z,10.97
2019-03-31T11:04:32.323Z,8.83
2019-03-31T11:07:03.604Z,8.83
2019-03-31T11:09:34.464Z,8.97
2019-03-31T11:12:04.939Z,8.37
2019-03-31T11:14:35.213Z,9.40
2019-03-31T11:17:05.384Z,7.73
2019-03-31T11:19:35.674Z,7.90
2019-03-31T11:22:22.925Z,9.13
2019-03-31T11:24:53.065Z,9.10
2019-03-31T11:27:23.363Z,9.10
2019-03-31T11:29:53.447Z,9.77
2019-03-31T11:32:23.636Z,9.63
2019-03-31T11:34:53.913Z,10.10
2019-03-31T11:37:24.171Z,10.50
2019-03-31T11:39:54.451Z,10.17
2019-03-31T11:42:24.802Z,10.60
2019-03-31T11:44:54.961Z,10.03
2019-03-31T11:47:25.267Z,10.17
2019-03-31T11:49:55.337Z,10.13
2019-03-31T11:52:25.489Z,9.97
2019-03-31T11:54:55.605Z,10.87
2019-03-31T11:57:25.928Z,11.47
2019-03-31T11:59:56.231Z,10.60
2019-03-31T12:02:27.806Z,11.00
2019-03-31T12:04:58.335Z,10.37
2019-03-31T12:07:28.813Z,9.80
2019-03-31T12:09:59.079Z,9.83
2019-03-31T12:12:29.327Z,11.43
2019-03-31T12:15:00.885Z,10.33
2019-03-31T12:17:31.835Z,10.60
2019-03-31T12:20:01.909Z,10.70
2019-03-31T12:22:32.230Z,11.07
2019-03-31T12:25:02.553Z,10.30
2019-03-31T12:27:32.613Z,10.57
2019-03-31T12:30:02.843Z,10.60
2019-03-31T12:32:33.163Z,10.63
2019-03-31T12:35:03.365Z,10.60
2019-03-31T12:37:42.389Z,10.97
2019-03-31T12:40:06.427Z,9.30
2019-03-31T12:42:36.877Z,10.80
2019-03-31T12:45:07.261Z,10.57
2019-03-31T12:47:37.515Z,10.47
2019-03-31T12:50:07.919Z,10.83
2019-03-31T12:52:46.490Z,10.50
2019-03-31T12:55:10.120Z,10.20
2019-03-31T12:57:40.495Z,10.10
2019-03-31T13:00:11.589Z,10.23
2019-03-31T13:02:41.973Z,10.63
2019-03-31T13:05:12.252Z,10.67
2019-03-31T13:07:55.680Z,10.50
2019-03-31T13:10:14.771Z,9.80
2019-03-31T13:12:45.042Z,10.77
2019-03-31T13:15:15.532Z,10.37
2019-03-31T13:17:45.750Z,9.97
2019-03-31T13:20:16.254Z,9.40
2019-03-31T13:22:46.312Z,11.23
2019-03-31T13:25:16.640Z,10.17
2019-03-31T13:27:47.052Z,10.37
2019-03-31T13:30:17.227Z,9.83
2019-03-31T13:32:47.442Z,9.83
2019-03-31T13:35:17.830Z,10.20
2019-03-31T13:37:48.119Z,9.20
2019-03-31T13:40:18.296Z,9.90
2019-03-31T13:42:48.688Z,9.60
2019-03-31T13:45:19.145Z,10.00
2019-03-31T13:47:49.245Z,8.83
2019-03-31T13:50:19.437Z,15.70
2019-03-31T13:52:49.628Z,12.20
2019-03-31T13:55:38.539Z,12.67
2019-03-31T13:58:09.217Z,13.23
2019-03-31T14:00:44.169Z,13.67
2019-03-31T14:03:16.013Z,11.03
2019-03-31T14:05:46.210Z,12.67
2019-03-31T14:08:25.479Z,10.63
2019-03-31T14:10:48.582Z,9.47
2019-03-31T14:13:18.700Z,9.40
2019-03-31T14:15:48.837Z,9.50
2019-03-31T14:18:19.136Z,8.67
2019-03-31T14:20:49.455Z,8.00
2019-03-31T14:23:19.574Z,7.63
2019-03-31T14:25:49.709Z,7.53
2019-03-31T14:28:19.980Z,7.90
2019-03-31T14:30:50.349Z,7.23
2019-03-31T14:33:20.609Z,7.07
2019-03-31T14:35:50.946Z,8.57
2019-03-31T14:38:21.268Z,8.50
2019-03-31T14:40:51.463Z,7.93
2019-03-31T14:43:21.633Z,8.60
2019-03-31T14:45:51.890Z,8.07
2019-03-31T14:48:22.250Z,9.30
2019-03-31T14:50:52.372Z,8.43
2019-03-31T14:53:22.595Z,8.80
2019-03-31T14:55:52.931Z,8.10
2019-03-31T14:58:23.136Z,8.33
2019-03-31T15:00:53.422Z,8.93
2019-03-31T15:03:23.790Z,7.80
2019-03-31T15:05:53.912Z,7.60
2019-03-31T15:08:24.133Z,7.70
2019-03-31T15:10:54.464Z,9.37
2019-03-31T15:13:24.658Z,8.83
2019-03-31T15:15:55.003Z,8.50
2019-03-31T15:18:25.391Z,8.70
2019-03-31T15:20:55.734Z,7.70
2019-03-31T15:23:29.203Z,8.60
2019-03-31T15:25:58.112Z,8.13
2019-03-31T15:28:28.356Z,8.67
2019-03-31T15:30:58.576Z,8.37
2019-03-31T15:33:28.662Z,7.90
2019-03-31T15:35:58.960Z,7.47
2019-03-31T15:38:29.166Z,7.50
2019-03-31T15:40:59.286Z,7.97
2019-03-31T15:43:29.589Z,7.70
2019-03-31T15:45:59.921Z,8.97
2019-03-31T15:48:30.200Z,7.37
2019-03-31T15:51:00.469Z,8.13
2019-03-31T15:53:30.680Z,8.90
2019-03-31T15:56:00.808Z,9.13
2019-03-31T15:58:31.114Z,8.73
2019-03-31T16:01:01.364Z,8.00
2019-03-31T16:03:33.136Z,9.23
2019-03-31T16:06:03.432Z,8.77
2019-03-31T16:08:33.468Z,8.97
2019-03-31T16:11:04.894Z,8.80
2019-03-31T16:13:53.761Z,9.20
2019-03-31T16:16:23.453Z,9.53
2019-03-31T16:18:53.404Z,8.50
2019-03-31T16:21:23.416Z,8.60
2019-03-31T16:23:53.332Z,9.30
2019-03-31T16:26:23.182Z,8.60
2019-03-31T16:28:52.976Z,9.57
2019-03-31T16:31:22.732Z,8.93
2019-03-31T16:33:53.331Z,8.30
2019-03-31T16:36:23.199Z,8.50
2019-03-31T16:38:52.753Z,8.63
2019-03-31T16:41:22.505Z,8.77
2019-03-31T16:43:52.074Z,8.43
2019-03-31T16:46:21.798Z,9.37
2019-03-31T16:48:51.523Z,9.50
2019-03-31T16:51:21.057Z,8.80
2019-03-31T16:53:51.055Z,8.70
2019-03-31T16:56:20.757Z,9.00
2019-03-31T16:58:50.356Z,8.10
2019-03-31T17:01:20.023Z,8.90
2019-03-31T17:03:49.759Z,9.87
2019-03-31T17:06:19.342Z,9.17
2019-03-31T17:08:49.101Z,11.33
2019-03-31T17:11:18.669Z,10.43
2019-03-31T17:13:48.387Z,11.00
2019-03-31T17:16:18.151Z,10.10
2019-03-31T17:18:47.793Z,10.07
2019-03-31T17:21:17.445Z,10.27
2019-03-31T17:23:47.259Z,9.90
2019-03-31T17:26:16.989Z,9.80
2019-03-31T17:28:46.772Z,10.13
2019-03-31T17:31:16.436Z,9.73
2019-03-31T17:33:46.297Z,9.73
2019-03-31T17:36:16.151Z,8.90
2019-03-31T17:38:45.686Z,9.77
2019-03-31T17:41:15.237Z,9.07
2019-03-31T17:43:45.117Z,9.93
2019-03-31T17:46:14.793Z,9.40
2019-03-31T17:48:44.654Z,9.80
2019-03-31T17:51:14.537Z,10.33
2019-03-31T17:53:44.207Z,11.67
2019-03-31T17:56:13.814Z,10.10
2019-03-31T17:58:43.649Z,8.10
2019-03-31T18:01:13.349Z,6.47
2019-03-31T18:03:43.146Z,27.60
2019-03-31T18:06:12.991Z,5.20
2019-03-31T18:08:42.864Z,4.53
2019-03-31T18:11:12.533Z,4.80
2019-03-31T18:13:42.329Z,4.80
2019-03-31T18:16:11.873Z,4.97
2019-03-31T18:18:42.561Z,4.93
2019-03-31T18:21:12.434Z,5.20
2019-03-31T18:23:42.029Z,6.70
2019-03-31T18:26:11.874Z,5.83
2019-03-31T18:28:43.738Z,5.73
2019-03-31T18:31:12.921Z,5.30
2019-03-31T18:33:42.682Z,4.73
2019-03-31T18:36:12.494Z,5.30
2019-03-31T18:38:42.310Z,5.40
2019-03-31T18:41:12.083Z,5.27
2019-03-31T18:43:51.346Z,6.50
2019-03-31T18:46:13.474Z,5.57
2019-03-31T18:48:43.286Z,5.80
2019-03-31T18:51:13.170Z,6.10
2019-03-31T18:54:02.250Z,5.83
2019-03-31T18:56:46.304Z,5.37
2019-03-31T18:59:35.544Z,11.93
2019-03-31T19:02:27.055Z,40.37
2019-03-31T19:05:15.726Z,15.47
2019-03-31T19:08:03.437Z,10.80
2019-03-31T19:11:10.440Z,8.50
2019-03-31T19:13:59.145Z,6.00
2019-03-31T19:16:53.957Z,6.77
2019-03-31T19:19:39.263Z,7.10
2019-03-31T19:22:43.148Z,7.67
2019-03-31T19:25:34.774Z,7.00
2019-03-31T19:28:23.962Z,6.07
2019-03-31T19:31:15.441Z,5.27
2019-03-31T19:34:12.798Z,5.27
2019-03-31T19:37:01.518Z,5.40
2019-03-31T19:40:05.240Z,5.03
2019-03-31T19:43:02.956Z,5.07
2019-03-31T19:45:54.494Z,5.10
2019-03-31T19:48:37.466Z,5.70
2019-03-31T19:51:41.243Z,6.00
2019-03-31T19:54:32.632Z,5.47
2019-03-31T19:57:39.536Z,5.70
2019-03-31T20:00:31.547Z,5.50
2019-03-31T20:03:13.024Z,5.67
2019-03-31T20:06:00.431Z,5.73
2019-03-31T20:08:57.482Z,7.23
2019-03-31T20:11:41.436Z,6.80
2019-03-31T20:14:33.034Z,6.87
2019-03-31T20:17:27.067Z,5.70
2019-03-31T20:20:27.921Z,6.40
2019-03-31T20:23:22.569Z,8.60
2019-03-31T20:26:09.765Z,7.07
2019-03-31T20:28:58.246Z,7.17
2019-03-31T20:31:46.345Z,8.00
2019-03-31T20:34:31.238Z,8.00
2019-03-31T20:37:33.718Z,11.63
2019-03-31T20:40:25.642Z,8.73
2019-03-31T20:43:14.611Z,7.43
2019-03-31T20:45:44.382Z,6.93
2019-03-31T20:48:14.245Z,7.80
2019-03-31T20:50:43.998Z,7.43
2019-03-31T20:53:13.624Z,7.57
2019-03-31T20:55:43.447Z,7.23
2019-03-31T20:58:13.014Z,7.43
2019-03-31T21:00:42.636Z,8.33
2019-03-31T21:03:12.241Z,7.80
2019-03-31T21:05:41.816Z,7.37
2019-03-31T21:08:11.353Z,8.10
2019-03-31T21:10:41.334Z,7.10
2019-03-31T21:13:10.972Z,7.33
2019-03-31T21:15:40.575Z,7.53
2019-03-31T21:18:10.339Z,9.43
2019-03-31T21:20:40.084Z,9.53
2019-03-31T21:23:09.649Z,9.00
2019-03-31T21:25:39.625Z,8.80
2019-03-31T21:28:09.376Z,9.00
2019-03-31T21:30:39.750Z,9.13
2019-03-31T21:33:09.389Z,8.90
2019-03-31T21:35:39.457Z,8.77
2019-03-31T21:38:09.347Z,9.13
2019-03-31T21:40:38.950Z,9.37
2019-03-31T21:43:08.503Z,10.33
2019-03-31T21:45:38.389Z,10.13
2019-03-31T21:48:08.241Z,10.07
2019-03-31T21:50:37.883Z,10.10
2019-03-31T21:53:07.425Z,9.97
2019-03-31T21:55:37.089Z,9.90
2019-03-31T21:58:06.833Z,9.90
2019-03-31T22:00:51.759Z,10.10
2019-03-31T22:03:21.479Z,10.03
2019-03-31T22:05:51.165Z,9.30
2019-03-31T22:08:20.719Z,9.53
2019-03-31T22:10:50.369Z,9.23
2019-03-31T22:13:20.053Z,9.07
2019-03-31T22:15:49.730Z,9.80
2019-03-31T22:18:19.483Z,8.70
2019-03-31T22:20:49.314Z,9.73
2019-03-31T22:23:19.169Z,8.70
2019-03-31T22:25:48.790Z,8.43
2019-03-31T22:28:18.617Z,9.33
2019-03-31T22:30:48.158Z,11.10
2019-03-31T22:33:18.061Z,10.80
2019-03-31T22:36:05.593Z,8.97
2019-03-31T22:38:35.174Z,9.90
2019-03-31T22:41:04.954Z,9.17
2019-03-31T22:43:34.622Z,8.60
2019-03-31T22:46:04.240Z,8.87
2019-03-31T22:48:33.881Z,7.97
2019-03-31T22:51:03.623Z,8.13
2019-03-31T22:53:33.246Z,8.33
2019-03-31T22:56:02.946Z,8.10
2019-03-31T22:58:32.546Z,8.37
2019-03-31T23:01:02.251Z,8.53
2019-03-31T23:03:32.283Z,9.67
2019-03-31T23:06:01.834Z,8.47
2019-03-31T23:08:31.382Z,8.70
2019-03-31T23:11:01.209Z,8.20
2019-03-31T23:13:30.748Z,8.40
2019-03-31T23:16:00.297Z,9.30
2019-03-31T23:18:30.117Z,10.33
2019-03-31T23:21:00.076Z,10.27
2019-03-31T23:23:29.987Z,9.80
2019-03-31T23:25:59.780Z,9.50
2019-03-31T23:28:29.654Z,9.43
2019-03-31T23:30:59.324Z,9.10
2019-03-31T23:33:29.100Z,8.40
2019-03-31T23:35:58.940Z,8.53
2019-03-31T23:38:47.544Z,9.53
2019-03-31T23:41:17.280Z,9.40
2019-03-31T23:43:46.856Z,9.97
2019-03-31T23:46:16.528Z,10.20
2019-03-31T23:48:46.413Z,10.63
2019-03-31T23:51:16.120Z,11.97
2019-03-31T23:53:45.844Z,14.00
2019-03-31T23:56:15.556Z,14.90
2019-03-31T23:58:46.692Z,14.67
